PWSweather.com
Personal Weather Stations
Station Observations
MANRESA
Manresa Catalonia, ManresaES 08243

Manresa CataloniaManresaES 08243

Lat: 41.731, Lon: 1.834

Elevation: 824

Station Type: Oregon Scientífic WMR-200

Latest ConditionsUpdated 4:27:02 AM GMT+01:01 Friday, Apr 19, 2019
Currently Today's Max Today's Min Today's Average
Temperature 58.5°F14.7°C 59.4°F15.2°C 58.5°F14.7°C 59.3°F15.2°C
Dew Point 30.9°F-0.6°C 31.8°F-0.1°C 29.5°F-1.4°C 31.1°F-0.5°C
Winds 5.8 mph E9.3 kmh E 9.8 mph -15.8 kmh - - 6.4 mph 10.3 kmh
Wind Gusts 6.9 mph11.1 kmh 11.0 mph17.7 kmh - -
Humidity 35% 35% 32% 34%
Pressure 30.04 in1017.3 mb 30.10 in1019.3 mb 30.04 in1017.3 mb -
Hour Temp Dew Point Humidity Winds Wind Gusts Pressure Precip Precip Rate Daily Precip Total
04:27 AM 58.5°F14.7°C 30.9°F-0.6°C 35% 5.8 mph E9.3 kmh E 6.9 mph11.1 kmh 30.04 in1017.3 mb - 0.00 in0.0 mm 0.00 in0.0 mm
04:22 AM 58.8°F14.9°C 31.3°F-0.4°C 35% 4.7 mph NE7.6 kmh NE 5.1 mph8.2 kmh 30.07 in1018.3 mb - 0.00 in0.0 mm 0.00 in0.0 mm
04:17 AM 58.8°F14.9°C 31.3°F-0.4°C 35% 7.4 mph ENE11.9 kmh ENE 8.1 mph13.0 kmh 30.07 in1018.3 mb - 0.00 in0.0 mm 0.00 in0.0 mm
04:12 AM 59.0°F15.0°C 31.5°F-0.3°C 35% 5.1 mph ENE8.2 kmh ENE 6.7 mph10.8 kmh 30.07 in1018.3 mb - 0.00 in0.0 mm 0.00 in0.0 mm
04:07 AM 59.0°F15.0°C 31.5°F-0.3°C 35% 4.7 mph ENE7.6 kmh ENE 6.5 mph10.5 kmh 30.07 in1018.3 mb - 0.00 in0.0 mm 0.00 in0.0 mm
04:02 AM 59.0°F15.0°C 31.5°F-0.3°C 35% 5.8 mph ENE9.3 kmh ENE 9.4 mph15.1 kmh 30.07 in1018.3 mb - 0.00 in0.0 mm 0.00 in0.0 mm
03:57 AM 59.0°F15.0°C 31.5°F-0.3°C 35% 7.2 mph NE11.6 kmh NE 8.7 mph14.0 kmh 30.07 in1018.3 mb - 0.00 in0.0 mm 0.00 in0.0 mm
03:52 AM 59.0°F15.0°C 31.5°F-0.3°C 35% 5.6 mph E9.0 kmh E 6.3 mph10.1 kmh 30.07 in1018.3 mb - 0.00 in0.0 mm 0.00 in0.0 mm
03:47 AM 59.0°F15.0°C 31.5°F-0.3°C 35% 5.4 mph NE8.7 kmh NE 6.3 mph10.1 kmh 30.07 in1018.3 mb - 0.00 in0.0 mm 0.00 in0.0 mm
03:42 AM 59.2°F15.1°C 31.6°F-0.2°C 35% 5.8 mph NE9.3 kmh NE 6.7 mph10.8 kmh 30.07 in1018.3 mb - 0.00 in0.0 mm 0.00 in0.0 mm
03:37 AM 59.2°F15.1°C 31.6°F-0.2°C 35% 5.6 mph NE9.0 kmh NE 6.3 mph10.1 kmh 30.07 in1018.3 mb - 0.00 in0.0 mm 0.00 in0.0 mm
03:32 AM 59.2°F15.1°C 30.9°F-0.6°C 34% 5.6 mph NE9.0 kmh NE 6.0 mph9.7 kmh 30.07 in1018.3 mb - 0.00 in0.0 mm 0.00 in0.0 mm
03:27 AM 59.2°F15.1°C 30.9°F-0.6°C 34% 5.4 mph ENE8.7 kmh ENE 8.1 mph13.0 kmh 30.07 in1018.3 mb - 0.00 in0.0 mm 0.00 in0.0 mm
03:22 AM 59.2°F15.1°C 30.9°F-0.6°C 34% 4.5 mph E7.2 kmh E 5.8 mph9.3 kmh 30.07 in1018.3 mb - 0.00 in0.0 mm 0.00 in0.0 mm
03:17 AM 59.4°F15.2°C 31.1°F-0.5°C 34% 4.5 mph E7.2 kmh E 3.8 mph6.1 kmh 30.07 in1018.3 mb - 0.00 in0.0 mm 0.00 in0.0 mm
03:12 AM 59.4°F15.2°C 31.1°F-0.5°C 34% 5.1 mph ENE8.2 kmh ENE 7.6 mph12.2 kmh 30.07 in1018.3 mb - 0.00 in0.0 mm 0.00 in0.0 mm
03:07 AM 59.4°F15.2°C 31.1°F-0.5°C 34% 6.0 mph ENE9.7 kmh ENE 5.8 mph9.3 kmh 30.07 in1018.3 mb - 0.00 in0.0 mm 0.00 in0.0 mm
03:02 AM 59.4°F15.2°C 31.1°F-0.5°C 34% 5.6 mph ENE9.0 kmh ENE 6.5 mph10.5 kmh 30.07 in1018.3 mb - 0.00 in0.0 mm 0.00 in0.0 mm
02:57 AM 59.4°F15.2°C 31.1°F-0.5°C 34% 4.5 mph ENE7.2 kmh ENE 6.5 mph10.5 kmh 30.07 in1018.3 mb - 0.00 in0.0 mm 0.00 in0.0 mm
02:52 AM 59.4°F15.2°C 31.1°F-0.5°C 34% 7.4 mph ENE11.9 kmh ENE 8.9 mph14.3 kmh 30.07 in1018.3 mb - 0.00 in0.0 mm 0.00 in0.0 mm
02:47 AM 59.4°F15.2°C 31.1°F-0.5°C 34% 5.6 mph NE9.0 kmh NE 7.8 mph12.6 kmh 30.07 in1018.3 mb - 0.00 in0.0 mm 0.00 in0.0 mm
02:42 AM 59.4°F15.2°C 31.8°F-0.1°C 35% 5.6 mph E9.0 kmh E 5.8 mph9.3 kmh 30.07 in1018.3 mb - 0.00 in0.0 mm 0.00 in0.0 mm
02:37 AM 59.4°F15.2°C 31.8°F-0.1°C 35% 6.5 mph ENE10.5 kmh ENE 7.8 mph12.6 kmh 30.04 in1017.3 mb - 0.00 in0.0 mm 0.00 in0.0 mm
02:32 AM 59.4°F15.2°C 31.8°F-0.1°C 35% 6.0 mph ENE9.7 kmh ENE 6.5 mph10.5 kmh 30.04 in1017.3 mb - 0.00 in0.0 mm 0.00 in0.0 mm
02:27 AM 59.4°F15.2°C 31.8°F-0.1°C 35% 7.8 mph ENE12.6 kmh ENE 8.9 mph14.3 kmh 30.04 in1017.3 mb - 0.00 in0.0 mm 0.00 in0.0 mm
02:22 AM 59.4°F15.2°C 31.8°F-0.1°C 35% 7.2 mph ENE11.6 kmh ENE 8.9 mph14.3 kmh 30.07 in1018.3 mb - 0.00 in0.0 mm 0.00 in0.0 mm
02:17 AM 59.4°F15.2°C 31.8°F-0.1°C 35% 7.2 mph ENE11.6 kmh ENE 6.7 mph10.8 kmh 30.07 in1018.3 mb - 0.00 in0.0 mm 0.00 in0.0 mm
02:12 AM 59.4°F15.2°C 31.8°F-0.1°C 35% 7.6 mph ENE12.2 kmh ENE 7.4 mph11.9 kmh 30.07 in1018.3 mb - 0.00 in0.0 mm 0.00 in0.0 mm
02:07 AM 59.4°F15.2°C 31.8°F-0.1°C 35% 7.6 mph ENE12.2 kmh ENE 8.1 mph13.0 kmh 30.10 in1019.3 mb - 0.00 in0.0 mm 0.00 in0.0 mm
02:02 AM 59.4°F15.2°C 31.8°F-0.1°C 35% 8.1 mph NNE13.0 kmh NNE 11.0 mph17.7 kmh 30.10 in1019.3 mb - 0.00 in0.0 mm 0.00 in0.0 mm
01:57 AM 59.4°F15.2°C 31.8°F-0.1°C 35% 6.7 mph NE10.8 kmh NE 5.4 mph8.7 kmh 30.10 in1019.3 mb - 0.00 in0.0 mm 0.00 in0.0 mm
01:52 AM 59.4°F15.2°C 31.8°F-0.1°C 35% 5.8 mph NE9.3 kmh NE 5.6 mph9.0 kmh 30.07 in1018.3 mb - 0.00 in0.0 mm 0.00 in0.0 mm
01:47 AM 59.4°F15.2°C 31.8°F-0.1°C 35% 5.4 mph NE8.7 kmh NE 5.8 mph9.3 kmh 30.07 in1018.3 mb - 0.00 in0.0 mm 0.00 in0.0 mm
01:42 AM 59.4°F15.2°C 31.1°F-0.5°C 34% 8.5 mph NNE13.7 kmh NNE 5.8 mph9.3 kmh 30.07 in1018.3 mb - 0.00 in0.0 mm 0.00 in0.0 mm
01:37 AM 59.4°F15.2°C 31.1°F-0.5°C 34% 7.4 mph NNE11.9 kmh NNE 11.0 mph17.7 kmh 30.07 in1018.3 mb - 0.00 in0.0 mm 0.00 in0.0 mm
01:32 AM 59.4°F15.2°C 31.1°F-0.5°C 34% 7.2 mph ENE11.6 kmh ENE 8.3 mph13.4 kmh 30.07 in1018.3 mb - 0.00 in0.0 mm 0.00 in0.0 mm
01:27 AM 59.4°F15.2°C 31.1°F-0.5°C 34% 6.0 mph NNE9.7 kmh NNE 8.7 mph14.0 kmh 30.07 in1018.3 mb - 0.00 in0.0 mm 0.00 in0.0 mm
01:22 AM 59.4°F15.2°C 31.1°F-0.5°C 34% 6.5 mph NE10.5 kmh NE 9.2 mph14.8 kmh 30.04 in1017.3 mb - 0.00 in0.0 mm 0.00 in0.0 mm
01:17 AM 59.4°F15.2°C 31.1°F-0.5°C 34% 8.3 mph E13.4 kmh E 9.2 mph14.8 kmh 30.04 in1017.3 mb - 0.00 in0.0 mm 0.00 in0.0 mm
01:12 AM 59.4°F15.2°C 31.1°F-0.5°C 34% 6.0 mph ENE9.7 kmh ENE 6.9 mph11.1 kmh 30.04 in1017.3 mb - 0.00 in0.0 mm 0.00 in0.0 mm
01:07 AM 59.4°F15.2°C 31.1°F-0.5°C 34% 5.4 mph ENE8.7 kmh ENE 6.9 mph11.1 kmh 30.04 in1017.3 mb - 0.00 in0.0 mm 0.00 in0.0 mm
01:02 AM 59.4°F15.2°C 31.1°F-0.5°C 34% 7.8 mph ENE12.6 kmh ENE 7.6 mph12.2 kmh 30.04 in1017.3 mb - 0.00 in0.0 mm 0.00 in0.0 mm
12:57 AM 59.4°F15.2°C 31.1°F-0.5°C 34% 7.4 mph NE11.9 kmh NE 7.4 mph11.9 kmh 30.04 in1017.3 mb - 0.00 in0.0 mm 0.00 in0.0 mm
12:52 AM 59.4°F15.2°C 30.4°F-0.9°C 33% 9.4 mph NE15.1 kmh NE 10.1 mph16.3 kmh 30.10 in1019.3 mb - 0.00 in0.0 mm 0.00 in0.0 mm
12:47 AM 59.4°F15.2°C 30.4°F-0.9°C 33% 9.8 mph E15.8 kmh E 8.3 mph13.4 kmh 30.10 in1019.3 mb - 0.00 in0.0 mm 0.00 in0.0 mm
12:42 AM 59.4°F15.2°C 30.4°F-0.9°C 33% 5.6 mph ENE9.0 kmh ENE 3.8 mph6.1 kmh 30.10 in1019.3 mb - 0.00 in0.0 mm 0.00 in0.0 mm
12:37 AM 59.4°F15.2°C 30.4°F-0.9°C 33% 6.5 mph NE10.5 kmh NE 7.4 mph11.9 kmh 30.07 in1018.3 mb - 0.00 in0.0 mm 0.00 in0.0 mm
12:32 AM 59.4°F15.2°C 30.4°F-0.9°C 33% 5.8 mph 9.3 kmh 4.3 mph6.9 kmh 30.07 in1018.3 mb - 0.00 in0.0 mm 0.00 in0.0 mm
12:27 AM 59.4°F15.2°C 30.4°F-0.9°C 33% 5.4 mph 8.7 kmh 5.1 mph8.2 kmh 30.07 in1018.3 mb - 0.00 in0.0 mm 0.00 in0.0 mm
12:22 AM 59.4°F15.2°C 30.4°F-0.9°C 33% 5.6 mph NNE9.0 kmh NNE 6.9 mph11.1 kmh 30.07 in1018.3 mb - 0.00 in0.0 mm 0.00 in0.0 mm
12:17 AM 59.4°F15.2°C 29.5°F-1.4°C 32% 7.4 mph NE11.9 kmh NE 6.5 mph10.5 kmh 30.07 in1018.3 mb - 0.00 in0.0 mm 0.00 in0.0 mm
12:12 AM 59.4°F15.2°C 29.5°F-1.4°C 32% 6.0 mph ENE9.7 kmh ENE 5.4 mph8.7 kmh 30.07 in1018.3 mb - 0.00 in0.0 mm 0.00 in0.0 mm
12:07 AM 59.4°F15.2°C 29.5°F-1.4°C 32% 7.4 mph ESE11.9 kmh ESE 6.3 mph10.1 kmh 30.07 in1018.3 mb - 0.00 in0.0 mm 0.00 in0.0 mm
12:02 AM 59.4°F15.2°C 29.5°F-1.4°C 32% 7.2 mph NE11.6 kmh NE 8.3 mph13.4 kmh 30.07 in1018.3 mb - 0.00 in0.0 mm 0.00 in0.0 mm